Helas — C4AZ2 — position and weather

sailwx.info

Track history (hours):
 
Tides and Currents Weather Stations Pressure Air Temp Water Temp Dewpoint Dewpoint Depression Visibility Wind Speed Wind Dir Waves Ship Positions

Helas

Last reported at 2016-Jul-30 09:05 UTC. Time now 2016-Jul-30 22:36 UTC.
Position N 43°33' W 001°34'.

Length 89 m; draft 3.2 m.

Type: Cargo ship. MMSI: 210031000.

Date/timePositionNaut miles runAvg speedWind from/ knotsBaromVisibWave heightAir tempDewpointWater temp
2016-Jul-30 09:05N 43°33' W 001°34'3 0.4
2016-Jul-30 00:07N 43°32' W 001°30'0 0.0
2016-Jul-29 23:33N 43°32' W 001°30'0 0.0
2016-Jul-29 17:32N 43°32' W 001°30'0 0.0
2016-Jul-29 16:26N 43°32' W 001°30'0 0.0
2016-Jul-29 14:25N 43°32' W 001°30'0 0.0
2016-Jul-29 13:33N 43°32' W 001°30'0 0.0
2016-Jul-29 12:33N 43°32' W 001°30'0 0.0
2016-Jul-29 11:33N 43°32' W 001°30'0 0.0
2016-Jul-29 10:33N 43°32' W 001°30'0 0.0
2016-Jul-29 09:33N 43°32' W 001°30'4 3.9
2016-Jul-29 08:31N 43°34' W 001°34'0 0.0
2016-Jul-29 07:31N 43°34' W 001°34'0 0.0
2016-Jul-29 06:31N 43°34' W 001°34'0 0.0
2016-Jul-29 05:25N 43°34' W 001°34'0 0.0
2016-Jul-29 04:31N 43°34' W 001°34'0 0.0
2016-Jul-29 03:28N 43°34' W 001°34'0 0.0
2016-Jul-29 02:31N 43°34' W 001°34'0 0.0
2016-Jul-29 01:28N 43°34' W 001°34'0 0.0
2016-Jul-29 00:31N 43°34' W 001°34'0 0.0
2016-Jul-28 21:31N 43°34' W 001°34'0 0.0
2016-Jul-28 20:25N 43°34' W 001°34'0 0.0
2016-Jul-28 19:19N 43°34' W 001°34'0 0.0
2016-Jul-28 18:31N 43°34' W 001°34'0 0.0
2016-Jul-28 17:31N 43°34' W 001°34'0 0.0
2016-Jul-28 16:25N 43°34' W 001°34'0 0.0
2016-Jul-28 15:33N 43°34' W 001°34'0 0.0
2016-Jul-28 14:27N 43°34' W 001°34'0 0.0
2016-Jul-28 13:33N 43°34' W 001°34'0 0.0
2016-Jul-28 12:33N 43°34' W 001°34'0 0.0
2016-Jul-28 11:24N 43°34' W 001°34'0 0.0
2016-Jul-28 10:33N 43°34' W 001°34'0 0.0
2016-Jul-28 09:33N 43°34' W 001°34'0 0.0
2016-Jul-28 08:33N 43°34' W 001°34'0 0.0
2016-Jul-28 07:33N 43°34' W 001°34'0 0.1
2016-Jul-28 06:33N 43°34' W 001°34'0 0.0
2016-Jul-28 05:33N 43°34' W 001°34'0 0.0
2016-Jul-28 04:33N 43°34' W 001°34'0 0.0
2016-Jul-28 03:33N 43°34' W 001°34'0 0.0
2016-Jul-28 02:24N 43°34' W 001°34'0 0.0
2016-Jul-28 01:18N 43°34' W 001°34'4 5.6
2016-Jul-28 00:33N 43°33' W 001°40'  
2016-Jul-25 06:08N 46°43' W 004°35'2110.1
2016-Jul-25 04:03N 47°03' W 004°45'34 9.7
2016-Jul-25 00:30N 47°36' W 005°01'1010.2
2016-Jul-24 23:32N 47°45' W 005°04'1211.8
2016-Jul-24 22:31N 47°57' W 005°10'1311.3
2016-Jul-24 21:21N 48°09' W 005°16'810.1
2016-Jul-24 20:31N 48°17' W 005°20'9 9.6
2016-Jul-24 19:33N 48°26' W 005°24'8 7.2
2016-Jul-24 18:29N 48°34' W 005°22'7 7.7
2016-Jul-24 17:33N 48°39' W 005°15'8 7.8
2016-Jul-24 16:33N 48°44' W 005°06'9 8.6
2016-Jul-24 15:33N 48°50' W 004°56'11 9.9
2016-Jul-24 14:29N 48°57' W 004°44'58 9.6
2016-Jul-24 08:27N 49°34' W 003°36'7 8.2
2016-Jul-24 07:32N 49°39' W 003°27'9 9.2
2016-Jul-24 06:33N 49°45' W 003°17'1010.4
2016-Jul-24 05:33N 49°52' W 003°04'1111.5
2016-Jul-24 04:33N 49°58' W 002°50'1612.5
2016-Jul-24 03:18N 50°03' W 002°27'2211.0
2016-Jul-24 01:16N 50°10' W 001°53'44 7.5
2016-Jul-23 19:24N 50°23' W 000°47'911.1
2016-Jul-23 18:33N 50°25' W 000°33'1211.6
2016-Jul-23 17:33N 50°29' W 000°16'1111.4
2016-Jul-23 16:33N 50°32' E 000°01'1111.0
2016-Jul-23 15:34N 50°35' E 000°18'1010.3
2016-Jul-23 14:33N 50°39' E 000°33'20 9.2
2016-Jul-23 12:26N 50°50' E 000°59'9 9.5
2016-Jul-23 11:32N 50°55' E 001°09'1111.2
2016-Jul-23 10:33N 51°02' E 001°23'1413.8
2016-Jul-23 09:33N 51°11' E 001°40'1212.5
2016-Jul-23 08:33N 51°21' E 001°51'1111.0
2016-Jul-23 07:33N 51°30' E 002°01'1010.0
2016-Jul-23 06:33N 51°38' E 002°12'18 8.9
2016-Jul-23 04:33N 51°51' E 002°31'36 8.9
2016-Jul-23 00:31N 52°14' E 003°15'1110.9
2016-Jul-22 23:32N 52°18' E 003°31'1111.1
2016-Jul-22 22:32N 52°23' E 003°48'1110.9
2016-Jul-22 21:32N 52°26' E 004°05'1010.3
2016-Jul-22 20:33N 52°27' E 004°21'9 9.2
2016-Jul-22 19:33N 52°28' E 004°36'0 0.1
2016-Jul-22 18:33N 52°28' E 004°36'0 0.0
2016-Jul-22 17:33N 52°28' E 004°36'0 0.0
2016-Jul-22 16:33N 52°28' E 004°36'0 0.0
2016-Jul-22 15:33N 52°28' E 004°36'0 0.0
2016-Jul-22 14:33N 52°28' E 004°36'0 0.0
2016-Jul-22 13:33N 52°28' E 004°36'0 0.0
2016-Jul-22 12:33N 52°28' E 004°36'0 0.0
2016-Jul-22 11:33N 52°28' E 004°36'0 0.0
2016-Jul-22 10:33N 52°28' E 004°36'0 0.0
2016-Jul-22 09:33N 52°28' E 004°36'0 0.0
2016-Jul-22 08:33N 52°28' E 004°36'0 0.0
2016-Jul-22 07:33N 52°28' E 004°36'0 0.0
2016-Jul-22 05:33N 52°28' E 004°36'0 0.0
2016-Jul-22 04:33N 52°28' E 004°36'0 0.0
2016-Jul-22 03:34N 52°28' E 004°36'0 0.0
2016-Jul-22 02:33N 52°28' E 004°36'0 0.0
2016-Jul-22 01:33N 52°28' E 004°36'0 0.0
2016-Jul-22 00:33N 52°28' E 004°36'0 0.0
2016-Jul-21 23:33N 52°28' E 004°36'0 0.0
2016-Jul-21 22:33N 52°28' E 004°36'0 0.0
2016-Jul-21 21:33N 52°28' E 004°36'8 7.6
2016-Jul-21 20:33N 52°26' E 004°25'1110.6
2016-Jul-21 19:33N 52°18' E 004°12'1111.3
2016-Jul-21 18:33N 52°09' E 004°02'8 8.2
2016-Jul-21 17:33N 52°01' E 003°59'1111.2
2016-Jul-21 16:33N 51°55' E 004°14'2 1.8
2016-Jul-21 15:31N 51°53' E 004°16'0 0.0
2016-Jul-21 14:31N 51°53' E 004°16'0 0.0
2016-Jul-21 13:31N 51°53' E 004°16'0 0.0
2016-Jul-21 12:31N 51°53' E 004°16'0 0.0
2016-Jul-21 11:31N 51°53' E 004°16'0 0.0
2016-Jul-21 10:28N 51°53' E 004°16'0 0.0
2016-Jul-21 09:31N 51°53' E 004°16'0 0.0
2016-Jul-21 08:31N 51°53' E 004°16'0 0.0
2016-Jul-21 07:31N 51°53' E 004°16'0 0.0
2016-Jul-21 06:31N 51°53' E 004°16'0 0.0
2016-Jul-21 05:33N 51°53' E 004°16'0 0.0
2016-Jul-21 04:34N 51°53' E 004°16'0 0.0
2016-Jul-21 03:34N 51°53' E 004°16'0 0.0
2016-Jul-21 02:33N 51°53' E 004°16'1 1.2
2016-Jul-21 01:33N 51°53' E 004°18'9 8.7
2016-Jul-21 00:33N 51°59' E 004°07'8 8.1
2016-Jul-20 23:34N 51°59' E 003°54'6 6.0
2016-Jul-20 22:34N 51°57' E 003°45'0 0.0
2016-Jul-20 21:26N 51°57' E 003°45'0 0.0
2016-Jul-20 20:32N 51°57' E 003°45'0 0.1
2016-Jul-20 19:29N 51°57' E 003°45'0 0.0
2016-Jul-20 18:32N 51°57' E 003°45'0 0.0
2016-Jul-20 17:32N 51°57' E 003°45'0 0.0
2016-Jul-20 16:31N 51°57' E 003°45'0 0.0
2016-Jul-20 15:25N 51°57' E 003°45'3 3.3
2016-Jul-20 14:33N 51°58' E 003°41'2511.0
2016-Jul-20 12:15N 51°51' E 003°01'18 9.3
2016-Jul-20 10:18N 51°43' E 002°34'6 8.5
2016-Jul-20 09:33N 51°38' E 002°27'  
Track history (hours):
 
Tides and Currents Weather Stations Pressure Air Temp Water Temp Dewpoint Dewpoint Depression Visibility Wind Speed Wind Dir Waves Ship Positions

Helas

Last reported at 2016-Jul-30 09:05 UTC. Time now 2016-Jul-30 22:36 UTC.
Position N 43°33' W 001°34'.

Length 89 m; draft 3.2 m.

Type: Cargo ship. MMSI: 210031000.

Date/timePositionNaut miles runAvg speedWind from/ knotsBaromVisibWave heightAir tempDewpointWater temp
2016-Jul-30 09:05N 43°33' W 001°34'3 0.4
2016-Jul-30 00:07N 43°32' W 001°30'0 0.0
2016-Jul-29 23:33N 43°32' W 001°30'0 0.0
2016-Jul-29 17:32N 43°32' W 001°30'0 0.0
2016-Jul-29 16:26N 43°32' W 001°30'0 0.0
2016-Jul-29 14:25N 43°32' W 001°30'0 0.0
2016-Jul-29 13:33N 43°32' W 001°30'0 0.0
2016-Jul-29 12:33N 43°32' W 001°30'0 0.0
2016-Jul-29 11:33N 43°32' W 001°30'0 0.0
2016-Jul-29 10:33N 43°32' W 001°30'0 0.0
2016-Jul-29 09:33N 43°32' W 001°30'4 3.9
2016-Jul-29 08:31N 43°34' W 001°34'0 0.0
2016-Jul-29 07:31N 43°34' W 001°34'0 0.0
2016-Jul-29 06:31N 43°34' W 001°34'0 0.0
2016-Jul-29 05:25N 43°34' W 001°34'0 0.0
2016-Jul-29 04:31N 43°34' W 001°34'0 0.0
2016-Jul-29 03:28N 43°34' W 001°34'0 0.0
2016-Jul-29 02:31N 43°34' W 001°34'0 0.0
2016-Jul-29 01:28N 43°34' W 001°34'0 0.0
2016-Jul-29 00:31N 43°34' W 001°34'0 0.0
2016-Jul-28 21:31N 43°34' W 001°34'0 0.0
2016-Jul-28 20:25N 43°34' W 001°34'0 0.0
2016-Jul-28 19:19N 43°34' W 001°34'0 0.0
2016-Jul-28 18:31N 43°34' W 001°34'0 0.0
2016-Jul-28 17:31N 43°34' W 001°34'0 0.0
2016-Jul-28 16:25N 43°34' W 001°34'0 0.0
2016-Jul-28 15:33N 43°34' W 001°34'0 0.0
2016-Jul-28 14:27N 43°34' W 001°34'0 0.0
2016-Jul-28 13:33N 43°34' W 001°34'0 0.0
2016-Jul-28 12:33N 43°34' W 001°34'0 0.0
2016-Jul-28 11:24N 43°34' W 001°34'0 0.0
2016-Jul-28 10:33N 43°34' W 001°34'0 0.0
2016-Jul-28 09:33N 43°34' W 001°34'0 0.0
2016-Jul-28 08:33N 43°34' W 001°34'0 0.0
2016-Jul-28 07:33N 43°34' W 001°34'0 0.1
2016-Jul-28 06:33N 43°34' W 001°34'0 0.0
2016-Jul-28 05:33N 43°34' W 001°34'0 0.0
2016-Jul-28 04:33N 43°34' W 001°34'0 0.0
2016-Jul-28 03:33N 43°34' W 001°34'0 0.0
2016-Jul-28 02:24N 43°34' W 001°34'0 0.0
2016-Jul-28 01:18N 43°34' W 001°34'4 5.6
2016-Jul-28 00:33N 43°33' W 001°40'  
2016-Jul-25 06:08N 46°43' W 004°35'2110.1
2016-Jul-25 04:03N 47°03' W 004°45'34 9.7
2016-Jul-25 00:30N 47°36' W 005°01'1010.2
2016-Jul-24 23:32N 47°45' W 005°04'1211.8
2016-Jul-24 22:31N 47°57' W 005°10'1311.3
2016-Jul-24 21:21N 48°09' W 005°16'810.1
2016-Jul-24 20:31N 48°17' W 005°20'9 9.6
2016-Jul-24 19:33N 48°26' W 005°24'8 7.2
2016-Jul-24 18:29N 48°34' W 005°22'7 7.7
2016-Jul-24 17:33N 48°39' W 005°15'8 7.8
2016-Jul-24 16:33N 48°44' W 005°06'9 8.6
2016-Jul-24 15:33N 48°50' W 004°56'11 9.9
2016-Jul-24 14:29N 48°57' W 004°44'58 9.6
2016-Jul-24 08:27N 49°34' W 003°36'7 8.2
2016-Jul-24 07:32N 49°39' W 003°27'9 9.2
2016-Jul-24 06:33N 49°45' W 003°17'1010.4
2016-Jul-24 05:33N 49°52' W 003°04'1111.5
2016-Jul-24 04:33N 49°58' W 002°50'1612.5
2016-Jul-24 03:18N 50°03' W 002°27'2211.0
2016-Jul-24 01:16N 50°10' W 001°53'44 7.5
2016-Jul-23 19:24N 50°23' W 000°47'911.1
2016-Jul-23 18:33N 50°25' W 000°33'1211.6
2016-Jul-23 17:33N 50°29' W 000°16'1111.4
2016-Jul-23 16:33N 50°32' E 000°01'1111.0
2016-Jul-23 15:34N 50°35' E 000°18'1010.3
2016-Jul-23 14:33N 50°39' E 000°33'20 9.2
2016-Jul-23 12:26N 50°50' E 000°59'9 9.5
2016-Jul-23 11:32N 50°55' E 001°09'1111.2
2016-Jul-23 10:33N 51°02' E 001°23'1413.8
2016-Jul-23 09:33N 51°11' E 001°40'1212.5
2016-Jul-23 08:33N 51°21' E 001°51'1111.0
2016-Jul-23 07:33N 51°30' E 002°01'1010.0
2016-Jul-23 06:33N 51°38' E 002°12'18 8.9
2016-Jul-23 04:33N 51°51' E 002°31'36 8.9
2016-Jul-23 00:31N 52°14' E 003°15'1110.9
2016-Jul-22 23:32N 52°18' E 003°31'1111.1
2016-Jul-22 22:32N 52°23' E 003°48'1110.9
2016-Jul-22 21:32N 52°26' E 004°05'1010.3
2016-Jul-22 20:33N 52°27' E 004°21'9 9.2
2016-Jul-22 19:33N 52°28' E 004°36'0 0.1
2016-Jul-22 18:33N 52°28' E 004°36'0 0.0
2016-Jul-22 17:33N 52°28' E 004°36'0 0.0
2016-Jul-22 16:33N 52°28' E 004°36'0 0.0
2016-Jul-22 15:33N 52°28' E 004°36'0 0.0
2016-Jul-22 14:33N 52°28' E 004°36'0 0.0
2016-Jul-22 13:33N 52°28' E 004°36'0 0.0
2016-Jul-22 12:33N 52°28' E 004°36'0 0.0
2016-Jul-22 11:33N 52°28' E 004°36'0 0.0
2016-Jul-22 10:33N 52°28' E 004°36'0 0.0
2016-Jul-22 09:33N 52°28' E 004°36'0 0.0
2016-Jul-22 08:33N 52°28' E 004°36'0 0.0
2016-Jul-22 07:33N 52°28' E 004°36'0 0.0
2016-Jul-22 05:33N 52°28' E 004°36'0 0.0
2016-Jul-22 04:33N 52°28' E 004°36'0 0.0
2016-Jul-22 03:34N 52°28' E 004°36'0 0.0
2016-Jul-22 02:33N 52°28' E 004°36'0 0.0
2016-Jul-22 01:33N 52°28' E 004°36'0 0.0
2016-Jul-22 00:33N 52°28' E 004°36'0 0.0
2016-Jul-21 23:33N 52°28' E 004°36'0 0.0
2016-Jul-21 22:33N 52°28' E 004°36'0 0.0
2016-Jul-21 21:33N 52°28' E 004°36'8 7.6
2016-Jul-21 20:33N 52°26' E 004°25'1110.6
2016-Jul-21 19:33N 52°18' E 004°12'1111.3
2016-Jul-21 18:33N 52°09' E 004°02'8 8.2
2016-Jul-21 17:33N 52°01' E 003°59'1111.2
2016-Jul-21 16:33N 51°55' E 004°14'2 1.8
2016-Jul-21 15:31N 51°53' E 004°16'0 0.0
2016-Jul-21 14:31N 51°53' E 004°16'0 0.0
2016-Jul-21 13:31N 51°53' E 004°16'0 0.0
2016-Jul-21 12:31N 51°53' E 004°16'0 0.0
2016-Jul-21 11:31N 51°53' E 004°16'0 0.0
2016-Jul-21 10:28N 51°53' E 004°16'0 0.0
2016-Jul-21 09:31N 51°53' E 004°16'0 0.0
2016-Jul-21 08:31N 51°53' E 004°16'0 0.0
2016-Jul-21 07:31N 51°53' E 004°16'0 0.0
2016-Jul-21 06:31N 51°53' E 004°16'0 0.0
2016-Jul-21 05:33N 51°53' E 004°16'0 0.0
2016-Jul-21 04:34N 51°53' E 004°16'0 0.0
2016-Jul-21 03:34N 51°53' E 004°16'0 0.0
2016-Jul-21 02:33N 51°53' E 004°16'1 1.2
2016-Jul-21 01:33N 51°53' E 004°18'9 8.7
2016-Jul-21 00:33N 51°59' E 004°07'8 8.1
2016-Jul-20 23:34N 51°59' E 003°54'6 6.0
2016-Jul-20 22:34N 51°57' E 003°45'0 0.0
2016-Jul-20 21:26N 51°57' E 003°45'0 0.0
2016-Jul-20 20:32N 51°57' E 003°45'0 0.1
2016-Jul-20 19:29N 51°57' E 003°45'0 0.0
2016-Jul-20 18:32N 51°57' E 003°45'0 0.0
2016-Jul-20 17:32N 51°57' E 003°45'0 0.0
2016-Jul-20 16:31N 51°57' E 003°45'0 0.0
2016-Jul-20 15:25N 51°57' E 003°45'3 3.3
2016-Jul-20 14:33N 51°58' E 003°41'2511.0
2016-Jul-20 12:15N 51°51' E 003°01'18 9.3
2016-Jul-20 10:18N 51°43' E 002°34'6 8.5
2016-Jul-20 09:33N 51°38' E 002°27'  

Dump ship's entire track history